Time,TemperatureF,DewpointF,PressureIn,WindDirection,WindDirectionDegrees,WindSpeedMPH,WindSpeedGustMPH,Humidity,HourlyPrecipIn,Conditions,Clouds,dailyrainin,SolarRadiationWatts/m^2,SoftwareType,DateUTC
2013-10-15 00:01:00,80.4,73.3,29.93,ESE,121,11.5,11.5,79,0.00,CLR,SKC,0.00,0.0,WeatherDisplay:10.37,2013-10-15 05:01:00,
2013-10-15 00:06:00,80.3,73.2,29.93,ESE,110,6.9,6.9,79,0.00,CLR,SKC,0.00,0.0,WeatherDisplay:10.37,2013-10-15 05:06:00,
2013-10-15 00:11:00,80.3,73.2,29.92,SSE,156,17.3,17.3,79,0.00,CLR,SKC,0.00,0.0,WeatherDisplay:10.37,2013-10-15 05:11:00,
2013-10-15 00:16:00,80.2,73.1,29.92,SE,134,12.7,12.7,79,0.00,CLR,SKC,0.00,0.0,WeatherDisplay:10.37,2013-10-15 05:16:00,
2013-10-15 00:21:00,80.3,73.2,29.92,ESE,121,11.5,11.5,79,0.00,CLR,SKC,0.00,0.0,WeatherDisplay:10.37,2013-10-15 05:21:00,
2013-10-15 00:26:00,80.3,73.2,29.92,ESE,117,12.7,12.7,79,0.00,CLR,SKC,0.00,0.0,WeatherDisplay:10.37,2013-10-15 05:26:00,
2013-10-15 00:31:00,80.3,73.6,29.92,ESE,110,13.8,13.8,80,0.00,CLR,SKC,0.00,0.0,WeatherDisplay:10.37,2013-10-15 05:31:00,
2013-10-15 00:36:00,80.3,73.6,29.92,ESE,112,11.5,11.5,80,0.00,CLR,SKC,0.00,0.0,WeatherDisplay:10.37,2013-10-15 05:36:00,
2013-10-15 00:41:00,80.2,73.5,29.93,SE,129,10.4,10.4,80,0.00,CLR,SKC,0.00,0.0,WeatherDisplay:10.37,2013-10-15 05:41:00,
2013-10-15 00:46:00,80.2,73.5,29.93,SSE,151,13.0,13.0,80,0.00,CLR,SKC,0.00,0.0,WeatherDisplay:10.37,2013-10-15 05:46:00,
2013-10-15 00:51:00,80.2,73.5,29.93,SE,135,10.4,10.4,80,0.00,CLR,SKC,0.00,0.0,WeatherDisplay:10.37,2013-10-15 05:51:00,
2013-10-15 00:56:00,80.2,73.5,29.92,SE,134,7.0,7.0,80,0.00,CLR,SKC,0.00,0.0,WeatherDisplay:10.37,2013-10-15 05:56:00,
2013-10-15 01:01:00,80.1,73.4,29.92,SE,135,12.0,12.0,80,0.00,CLR,SKC,0.00,0.0,WeatherDisplay:10.37,2013-10-15 06:01:00,
2013-10-15 01:06:00,80.1,73.4,29.92,SSE,155,10.4,10.4,80,0.00,CLR,SKC,0.00,0.0,WeatherDisplay:10.37,2013-10-15 06:06:00,
2013-10-15 01:11:00,80.1,73.4,29.93,SSE,159,3.5,3.5,80,0.00,CLR,SKC,0.00,0.0,WeatherDisplay:10.37,2013-10-15 06:11:00,
2013-10-15 01:16:00,80.1,73.4,29.93,SE,140,7.0,7.0,80,0.00,CLR,SKC,0.00,0.0,WeatherDisplay:10.37,2013-10-15 06:16:00,
2013-10-15 01:21:00,80.0,72.9,29.93,SSE,160,11.5,11.5,79,0.00,CLR,SKC,0.00,0.0,WeatherDisplay:10.37,2013-10-15 06:21:00,
2013-10-15 01:26:00,80.0,72.9,29.93,ESE,114,6.9,6.9,79,0.00,CLR,SKC,0.00,0.0,WeatherDisplay:10.37,2013-10-15 06:26:00,
2013-10-15 01:31:00,80.0,72.9,29.93,SSE,159,11.5,11.5,79,0.00,CLR,SKC,0.00,0.0,WeatherDisplay:10.37,2013-10-15 06:31:00,
2013-10-15 01:36:00,80.0,72.5,29.93,SE,136,6.0,6.0,78,0.00,CLR,SKC,0.00,0.0,WeatherDisplay:10.37,2013-10-15 06:36:00,
2013-10-15 01:41:00,80.0,72.9,29.93,SE,136,11.5,11.5,79,0.00,CLR,SKC,0.00,0.0,WeatherDisplay:10.37,2013-10-15 06:41:00,
2013-10-15 01:46:00,80.0,72.9,29.93,SE,138,5.8,5.8,79,0.00,CLR,SKC,0.00,0.0,WeatherDisplay:10.37,2013-10-15 06:46:00,
2013-10-15 01:51:00,80.0,72.9,29.93,SSE,155,5.8,5.8,79,0.00,CLR,SKC,0.00,0.0,WeatherDisplay:10.37,2013-10-15 06:51:00,
2013-10-15 01:56:00,80.0,72.9,29.93,SSE,148,12.7,12.7,79,0.00,CLR,SKC,0.00,0.0,WeatherDisplay:10.37,2013-10-15 06:56:00,
2013-10-15 02:01:00,79.9,72.8,29.93,SSE,165,8.1,8.1,79,0.00,CLR,SKC,0.00,0.0,WeatherDisplay:10.37,2013-10-15 07:01:00,
2013-10-15 02:06:00,80.0,73.3,29.93,ESE,113,5.0,5.0,80,0.00,CLR,SKC,0.00,0.0,WeatherDisplay:10.37,2013-10-15 07:06:00,
2013-10-15 02:11:00,80.0,73.3,29.92,SE,129,7.0,7.0,80,0.00,CLR,SKC,0.00,0.0,WeatherDisplay:10.37,2013-10-15 07:11:00,
2013-10-15 02:16:00,79.9,73.2,29.92,SE,130,9.2,9.2,80,0.00,CLR,SKC,0.00,0.0,WeatherDisplay:10.37,2013-10-15 07:16:00,
2013-10-15 02:21:00,79.8,73.1,29.92,ESE,115,9.2,9.2,80,0.00,CLR,SKC,0.00,0.0,WeatherDisplay:10.37,2013-10-15 07:21:00,
2013-10-15 02:26:00,79.8,73.1,29.92,SSE,148,8.1,8.1,80,0.00,CLR,SKC,0.00,0.0,WeatherDisplay:10.37,2013-10-15 07:26:00,
2013-10-15 02:31:00,79.9,73.2,29.92,ESE,111,6.9,6.9,80,0.00,CLR,SKC,0.00,0.0,WeatherDisplay:10.37,2013-10-15 07:31:00,
2013-10-15 02:36:00,79.8,73.1,29.92,ESE,116,8.1,8.1,80,0.00,CLR,SKC,0.00,0.0,WeatherDisplay:10.37,2013-10-15 07:36:00,
2013-10-15 02:41:00,79.8,73.1,29.91,SW,222,5.8,5.8,80,0.00,CLR,SKC,0.00,0.0,WeatherDisplay:10.37,2013-10-15 07:41:00,
2013-10-15 02:46:00,79.9,73.2,29.91,East,92,9.2,9.2,80,0.00,CLR,SKC,0.00,0.0,WeatherDisplay:10.37,2013-10-15 07:46:00,
2013-10-15 02:51:00,79.9,73.2,29.91,ESE,115,4.6,4.6,80,0.00,CLR,SKC,0.00,0.0,WeatherDisplay:10.37,2013-10-15 07:51:00,
2013-10-15 02:56:00,79.9,73.2,29.91,SE,129,6.9,6.9,80,0.00,CLR,SKC,0.00,0.0,WeatherDisplay:10.37,2013-10-15 07:56:00,
2013-10-15 03:01:00,79.9,73.2,29.91,SE,140,5.8,5.8,80,0.00,CLR,SKC,0.00,0.0,WeatherDisplay:10.37,2013-10-15 08:01:00,
2013-10-15 03:06:00,80.0,73.6,29.91,SSE,147,4.6,4.6,81,0.00,CLR,SKC,0.00,0.0,WeatherDisplay:10.37,2013-10-15 08:06:00,
2013-10-15 03:11:00,79.9,73.5,29.91,SE,132,5.8,5.8,81,0.00,CLR,SKC,0.00,0.0,WeatherDisplay:10.37,2013-10-15 08:11:00,
2013-10-15 03:17:00,79.9,73.5,29.91,SE,145,5.8,5.8,81,0.00,CLR,SKC,0.00,0.0,WeatherDisplay:10.37,2013-10-15 08:17:00,
2013-10-15 03:22:00,79.9,73.5,29.91,South,186,9.2,9.2,81,0.00,CLR,SKC,0.00,0.0,WeatherDisplay:10.37,2013-10-15 08:22:00,
2013-10-15 03:27:00,79.9,73.5,29.91,ESE,121,10.4,10.4,81,0.00,CLR,SKC,0.00,0.0,WeatherDisplay:10.37,2013-10-15 08:27:00,
2013-10-15 03:32:00,80.0,73.6,29.91,SE,140,9.2,9.2,81,0.00,CLR,SKC,0.00,0.0,WeatherDisplay:10.37,2013-10-15 08:32:00,
2013-10-15 03:37:00,80.0,73.6,29.91,SSE,162,6.9,6.9,81,0.00,CLR,SKC,0.00,0.0,WeatherDisplay:10.37,2013-10-15 08:37:00,
2013-10-15 03:42:00,79.9,73.9,29.91,SSE,165,3.5,3.5,82,0.00,CLR,SKC,0.00,0.0,WeatherDisplay:10.37,2013-10-15 08:42:00,
2013-10-15 03:47:00,79.6,73.6,29.91,SE,127,8.1,8.1,82,0.00,CLR,SKC,0.00,0.0,WeatherDisplay:10.37,2013-10-15 08:47:00,
2013-10-15 03:50:00,79.6,73.6,29.91,ESE,112,10.4,10.4,82,0.00,-RA,SKC,0.00,0.0,WeatherDisplay:10.37,2013-10-15 08:50:00,
2013-10-15 03:55:00,79.7,73.3,29.90,SE,141,9.2,9.2,81,0.00,-RA,SKC,0.00,0.0,WeatherDisplay:10.37,2013-10-15 08:55:00,
2013-10-15 04:00:00,79.8,73.4,29.90,South,171,9.0,9.0,81,0.00,-RA,SKC,0.00,0.0,WeatherDisplay:10.37,2013-10-15 09:00:00,
2013-10-15 04:05:00,79.9,73.5,29.90,SE,144,10.4,10.4,81,0.00,OVC,SKC,0.00,0.0,WeatherDisplay:10.37,2013-10-15 09:05:00,
2013-10-15 04:10:00,79.9,73.2,29.90,SE,126,11.5,11.5,80,0.00,OVC,SKC,0.00,0.0,WeatherDisplay:10.37,2013-10-15 09:10:00,
2013-10-15 04:15:00,79.9,73.2,29.90,SE,130,11.5,11.5,80,0.00,OVC,SKC,0.00,0.0,WeatherDisplay:10.37,2013-10-15 09:15:00,
2013-10-15 04:20:00,79.9,73.2,29.90,SE,135,6.9,6.9,80,0.00,OVC,SKC,0.00,0.0,WeatherDisplay:10.37,2013-10-15 09:20:00,
2013-10-15 04:25:00,80.0,73.3,29.90,SE,125,8.0,8.0,80,0.00,OVC,SKC,0.00,0.0,WeatherDisplay:10.37,2013-10-15 09:25:00,
2013-10-15 04:30:00,79.9,73.2,29.90,SE,133,11.5,11.5,80,0.00,OVC,SKC,0.00,0.0,WeatherDisplay:10.37,2013-10-15 09:30:00,
2013-10-15 04:35:00,79.9,73.2,29.90,SE,133,9.2,9.2,80,0.00,OVC,SKC,0.00,0.0,WeatherDisplay:10.37,2013-10-15 09:35:00,
2013-10-15 04:40:00,79.9,72.8,29.90,SSE,152,6.9,6.9,79,0.00,OVC,SKC,0.00,0.0,WeatherDisplay:10.37,2013-10-15 09:40:00,
2013-10-15 04:45:00,80.0,72.9,29.90,SE,133,10.4,10.4,79,0.00,OVC,SKC,0.00,0.0,WeatherDisplay:10.37,2013-10-15 09:45:00,
2013-10-15 04:50:00,80.0,72.9,29.90,ESE,117,10.4,10.4,79,0.00,OVC,SKC,0.00,0.0,WeatherDisplay:10.37,2013-10-15 09:50:00,
2013-10-15 04:55:00,80.0,72.5,29.89,SE,132,9.2,9.2,78,0.00,OVC,SKC,0.00,0.0,WeatherDisplay:10.37,2013-10-15 09:55:00,
2013-10-15 05:00:00,80.1,72.6,29.89,SE,129,11.5,11.5,78,0.00,OVC,SKC,0.00,0.0,WeatherDisplay:10.37,2013-10-15 10:00:00,
2013-10-15 05:05:00,80.1,72.6,29.89,South,175,10.0,10.0,78,0.00,BKN,SKC,0.00,0.0,WeatherDisplay:10.37,2013-10-15 10:05:00,
2013-10-15 05:10:00,80.0,72.5,29.89,SSE,153,8.0,8.0,78,0.00,BKN,SKC,0.00,0.0,WeatherDisplay:10.37,2013-10-15 10:10:00,
2013-10-15 05:15:00,80.1,72.6,29.89,East,90,11.5,11.5,78,0.00,BKN,SKC,0.00,0.0,WeatherDisplay:10.37,2013-10-15 10:15:00,
2013-10-15 05:20:00,80.1,72.6,29.89,ESE,117,10.4,10.4,78,0.00,BKN,SKC,0.00,0.0,WeatherDisplay:10.37,2013-10-15 10:20:00,
2013-10-15 05:25:00,80.1,72.6,29.88,SE,126,9.2,9.2,78,0.00,BKN,SKC,0.00,0.0,WeatherDisplay:10.37,2013-10-15 10:25:00,
2013-10-15 05:30:00,80.0,72.9,29.88,SE,141,6.9,6.9,79,0.00,BKN,SKC,0.00,0.0,WeatherDisplay:10.37,2013-10-15 10:30:00,
2013-10-15 05:35:00,80.0,73.3,29.88,ESE,107,10.4,10.4,80,0.00,BKN,SKC,0.00,0.0,WeatherDisplay:10.37,2013-10-15 10:35:00,
2013-10-15 05:40:00,80.1,73.7,29.88,SE,144,11.5,11.5,81,0.00,BKN,SKC,0.00,0.0,WeatherDisplay:10.37,2013-10-15 10:40:00,
2013-10-15 05:45:00,80.1,73.7,29.88,South,188,4.6,4.6,81,0.00,BKN,SKC,0.00,0.0,WeatherDisplay:10.37,2013-10-15 10:45:00,
2013-10-15 05:50:00,80.1,73.7,29.88,ESE,105,6.9,6.9,81,0.00,BKN,SKC,0.00,0.0,WeatherDisplay:10.37,2013-10-15 10:50:00,
2013-10-15 05:55:00,80.0,73.6,29.89,SSE,159,8.1,8.1,81,0.00,BKN,SKC,0.00,0.0,WeatherDisplay:10.37,2013-10-15 10:55:00,
2013-10-15 06:00:00,80.0,73.6,29.89,SE,138,11.5,11.5,81,0.00,BKN,SKC,0.00,0.0,WeatherDisplay:10.37,2013-10-15 11:00:00,
2013-10-15 06:05:00,80.0,73.6,29.89,SE,130,8.1,8.1,81,0.00,OVC,SKC,0.00,0.0,WeatherDisplay:10.37,2013-10-15 11:05:00,
2013-10-15 06:10:00,80.0,73.6,29.88,SSE,157,11.5,11.5,81,0.00,OVC,SKC,0.00,0.0,WeatherDisplay:10.37,2013-10-15 11:10:00,
2013-10-15 06:15:00,79.9,73.5,29.88,SE,140,6.9,6.9,81,0.00,OVC,SKC,0.00,0.0,WeatherDisplay:10.37,2013-10-15 11:15:00,
2013-10-15 06:20:00,79.8,73.1,29.88,SSE,163,11.5,11.5,80,0.00,OVC,SKC,0.00,0.0,WeatherDisplay:10.37,2013-10-15 11:20:00,
2013-10-15 06:25:00,79.8,72.7,29.88,SSE,154,11.5,11.5,79,0.00,OVC,SKC,0.00,0.0,WeatherDisplay:10.37,2013-10-15 11:25:00,
2013-10-15 06:30:00,79.8,72.7,29.88,SSE,167,11.5,11.5,79,0.00,OVC,SKC,0.00,0.0,WeatherDisplay:10.37,2013-10-15 11:30:00,
2013-10-15 06:35:00,79.8,72.3,29.88,SSE,150,11.5,11.5,78,0.00,OVC,SKC,0.00,0.0,WeatherDisplay:10.37,2013-10-15 11:35:00,
2013-10-15 06:40:00,79.8,72.3,29.89,South,169,10.0,10.0,78,0.00,OVC,SKC,0.00,0.0,WeatherDisplay:10.37,2013-10-15 11:40:00,
2013-10-15 06:45:00,79.8,72.7,29.89,ESE,121,10.4,10.4,79,0.00,OVC,SKC,0.00,0.0,WeatherDisplay:10.37,2013-10-15 11:45:00,
2013-10-15 06:50:00,79.8,72.7,29.89,SE,139,15.0,15.0,79,0.00,OVC,SKC,0.00,0.0,WeatherDisplay:10.37,2013-10-15 11:50:00,
2013-10-15 06:55:00,79.7,72.6,29.89,SSE,156,11.5,11.5,79,0.00,OVC,SKC,0.00,0.0,WeatherDisplay:10.37,2013-10-15 11:55:00,
2013-10-15 07:00:00,79.7,72.6,29.89,SE,130,11.5,11.5,79,0.00,OVC,SKC,0.00,0.0,WeatherDisplay:10.37,2013-10-15 12:00:00,
2013-10-15 07:05:00,79.7,72.6,29.89,SE,134,5.8,5.8,79,0.00,OVC,SKC,0.00,0.0,WeatherDisplay:10.37,2013-10-15 12:05:00,
2013-10-15 07:10:00,79.6,72.5,29.90,SSE,153,10.4,10.4,79,0.00,OVC,SKC,0.00,0.0,WeatherDisplay:10.37,2013-10-15 12:10:00,
2013-10-15 07:15:00,79.6,72.5,29.90,SE,144,9.2,9.2,79,0.00,OVC,SKC,0.00,0.0,WeatherDisplay:10.37,2013-10-15 12:15:00,
2013-10-15 07:20:00,79.6,72.5,29.90,ESE,115,5.0,5.0,79,0.00,OVC,SKC,0.00,0.0,WeatherDisplay:10.37,2013-10-15 12:20:00,
2013-10-15 07:25:00,79.6,72.5,29.90,SSE,167,8.1,8.1,79,0.00,OVC,SKC,0.00,0.0,WeatherDisplay:10.37,2013-10-15 12:25:00,
2013-10-15 07:30:00,79.6,72.5,29.90,SE,131,6.9,6.9,79,0.00,OVC,SKC,0.00,5.0,WeatherDisplay:10.37,2013-10-15 12:30:00,
2013-10-15 07:35:00,79.6,72.9,29.90,SSE,153,4.6,4.6,80,0.00,OVC,SKC,0.00,11.0,WeatherDisplay:10.37,2013-10-15 12:35:00,
2013-10-15 07:40:00,79.5,72.4,29.90,SE,129,9.2,9.2,79,0.00,OVC,SKC,0.00,14.0,WeatherDisplay:10.37,2013-10-15 12:40:00,
2013-10-15 07:45:00,79.6,72.5,29.90,South,171,6.0,6.0,79,0.00,OVC,SKC,0.00,30.0,WeatherDisplay:10.37,2013-10-15 12:45:00,
2013-10-15 07:50:00,79.6,72.5,29.90,SE,128,10.4,10.4,79,0.00,OVC,SKC,0.00,44.0,WeatherDisplay:10.37,2013-10-15 12:50:00,
2013-10-15 07:55:00,79.8,72.7,29.91,SE,139,11.5,11.5,79,0.00,OVC,SKC,0.00,70.0,WeatherDisplay:10.37,2013-10-15 12:55:00,
2013-10-15 08:00:00,80.0,72.9,29.91,SE,142,11.5,11.5,79,0.00,OVC,SKC,0.00,88.0,WeatherDisplay:10.37,2013-10-15 13:00:00,
2013-10-15 08:05:00,80.1,73.0,29.91,ESE,123,10.4,10.4,79,0.00,OVC,SKC,0.00,107.0,WeatherDisplay:10.37,2013-10-15 13:05:00,
2013-10-15 08:10:00,80.3,72.8,29.91,SE,127,6.9,6.9,78,0.00,OVC,SKC,0.00,135.0,WeatherDisplay:10.37,2013-10-15 13:10:00,
2013-10-15 08:15:00,80.6,73.1,29.91,SE,143,6.9,6.9,78,0.00,OVC,SKC,0.00,141.0,WeatherDisplay:10.37,2013-10-15 13:15:00,
2013-10-15 08:20:00,80.9,73.0,29.91,SE,126,6.9,6.9,77,0.00,OVC,SKC,0.00,181.0,WeatherDisplay:10.37,2013-10-15 13:20:00,
2013-10-15 08:25:00,81.1,73.2,29.92,SE,124,6.9,6.9,77,0.00,OVC,SKC,0.00,211.0,WeatherDisplay:10.37,2013-10-15 13:25:00,
2013-10-15 08:30:00,81.3,72.6,29.92,ESE,121,11.5,11.5,75,0.00,OVC,SKC,0.00,167.0,WeatherDisplay:10.37,2013-10-15 13:30:00,
2013-10-15 08:35:00,81.4,72.7,29.92,SSE,151,11.5,11.5,75,0.00,OVC,SKC,0.00,234.0,WeatherDisplay:10.37,2013-10-15 13:35:00,
2013-10-15 08:40:00,81.5,72.4,29.93,SE,128,6.9,6.9,74,0.00,OVC,SKC,0.00,244.0,WeatherDisplay:10.37,2013-10-15 13:40:00,
2013-10-15 08:45:00,81.8,73.1,29.93,ESE,111,6.9,6.9,75,0.00,OVC,SKC,0.00,262.0,WeatherDisplay:10.37,2013-10-15 13:45:00,
2013-10-15 08:50:00,82.0,73.3,29.93,ESE,117,11.5,11.5,75,0.00,OVC,SKC,0.00,251.0,WeatherDisplay:10.37,2013-10-15 13:50:00,
2013-10-15 08:55:00,82.1,73.4,29.93,SE,128,5.8,5.8,75,0.00,OVC,SKC,0.00,274.0,WeatherDisplay:10.37,2013-10-15 13:55:00,
2013-10-15 09:00:00,82.1,73.4,29.93,ESE,111,6.9,6.9,75,0.00,OVC,SKC,0.00,195.0,WeatherDisplay:10.37,2013-10-15 14:00:00,
2013-10-15 09:05:00,82.1,73.4,29.93,SSE,157,6.9,6.9,75,0.00,BKN,SKC,0.00,387.0,WeatherDisplay:10.37,2013-10-15 14:05:00,
2013-10-15 09:10:00,82.4,73.7,29.93,SE,125,6.9,6.9,75,0.00,BKN,SKC,0.00,408.0,WeatherDisplay:10.37,2013-10-15 14:10:00,
2013-10-15 09:15:00,82.7,73.6,29.93,South,173,12.7,12.7,74,0.00,BKN,SKC,0.00,390.0,WeatherDisplay:10.37,2013-10-15 14:15:00,
2013-10-15 09:20:00,82.8,73.7,29.93,SE,132,4.6,4.6,74,0.00,BKN,SKC,0.00,390.0,WeatherDisplay:10.37,2013-10-15 14:20:00,
2013-10-15 09:25:00,82.8,73.3,29.93,SE,144,11.5,11.5,73,0.00,BKN,SKC,0.00,385.0,WeatherDisplay:10.37,2013-10-15 14:25:00,
2013-10-15 09:30:00,82.9,73.4,29.93,ESE,119,6.0,6.0,73,0.00,BKN,SKC,0.00,381.0,WeatherDisplay:10.37,2013-10-15 14:30:00,
2013-10-15 09:35:00,83.1,73.1,29.93,SSE,156,9.2,9.2,72,0.00,BKN,SKC,0.00,399.0,WeatherDisplay:10.37,2013-10-15 14:35:00,
2013-10-15 09:40:00,83.1,72.7,29.93,ESE,109,5.8,5.8,71,0.00,BKN,SKC,0.00,411.0,WeatherDisplay:10.37,2013-10-15 14:40:00,
2013-10-15 09:45:00,83.2,72.8,29.93,SE,129,11.5,11.5,71,0.00,BKN,SKC,0.00,427.0,WeatherDisplay:10.37,2013-10-15 14:45:00,
2013-10-15 09:50:00,83.4,73.4,29.93,SE,139,5.8,5.8,72,0.00,BKN,SKC,0.00,443.0,WeatherDisplay:10.37,2013-10-15 14:50:00,
2013-10-15 09:55:00,83.5,73.5,29.93,SSE,153,12.7,12.7,72,0.00,BKN,SKC,0.00,464.0,WeatherDisplay:10.37,2013-10-15 14:55:00,
2013-10-15 10:00:00,83.2,73.2,29.93,SE,130,10.4,10.4,72,0.00,BKN,SKC,0.00,473.0,WeatherDisplay:10.37,2013-10-15 15:00:00,
2013-10-15 10:05:00,83.3,73.7,29.93,SE,138,8.1,8.1,73,0.00,SCT,SKC,0.00,487.0,WeatherDisplay:10.37,2013-10-15 15:05:00,
2013-10-15 10:10:00,83.5,73.9,29.93,SE,134,13.8,13.8,73,0.00,SCT,SKC,0.00,504.0,WeatherDisplay:10.37,2013-10-15 15:10:00,
2013-10-15 10:15:00,83.3,73.7,29.93,ESE,119,12.7,12.7,73,0.00,SCT,SKC,0.00,527.0,WeatherDisplay:10.37,2013-10-15 15:15:00,
2013-10-15 10:20:00,83.4,73.8,29.93,ESE,120,9.2,9.2,73,0.00,SCT,SKC,0.00,534.0,WeatherDisplay:10.37,2013-10-15 15:20:00,
2013-10-15 10:25:00,83.1,73.5,29.93,ESE,117,11.5,11.5,73,0.00,SCT,SKC,0.00,552.0,WeatherDisplay:10.37,2013-10-15 15:25:00,
2013-10-15 10:30:00,83.3,73.7,29.93,SSE,147,11.5,11.5,73,0.00,SCT,SKC,0.00,566.0,WeatherDisplay:10.37,2013-10-15 15:30:00,
2013-10-15 10:35:00,83.4,73.4,29.93,ESE,121,11.5,11.5,72,0.00,SCT,SKC,0.00,582.0,WeatherDisplay:10.37,2013-10-15 15:35:00,
2013-10-15 10:40:00,83.4,73.4,29.93,SE,128,11.5,11.5,72,0.00,SCT,SKC,0.00,591.0,WeatherDisplay:10.37,2013-10-15 15:40:00,
2013-10-15 10:45:00,83.7,73.7,29.93,SE,136,6.9,6.9,72,0.00,SCT,SKC,0.00,624.0,WeatherDisplay:10.37,2013-10-15 15:45:00,
2013-10-15 10:50:00,84.0,73.6,29.93,SE,126,11.5,11.5,71,0.00,SCT,SKC,0.00,584.0,WeatherDisplay:10.37,2013-10-15 15:50:00,
2013-10-15 10:55:00,83.8,73.8,29.93,SE,130,10.4,10.4,72,0.00,SCT,SKC,0.00,700.0,WeatherDisplay:10.37,2013-10-15 15:55:00,
2013-10-15 11:00:00,83.9,73.9,29.93,South,188,10.0,10.0,72,0.00,SCT,SKC,0.00,652.0,WeatherDisplay:10.37,2013-10-15 16:00:00,
2013-10-15 11:05:00,84.0,74.0,29.93,ESE,106,12.7,12.7,72,0.00,CLR,SKC,0.00,659.0,WeatherDisplay:10.37,2013-10-15 16:05:00,
2013-10-15 11:10:00,83.6,73.6,29.93,SE,139,6.9,6.9,72,0.00,CLR,SKC,0.00,666.0,WeatherDisplay:10.37,2013-10-15 16:10:00,
2013-10-15 11:15:00,83.8,73.8,29.93,SE,133,13.8,13.8,72,0.00,CLR,SKC,0.00,680.0,WeatherDisplay:10.37,2013-10-15 16:15:00,
2013-10-15 11:20:00,83.9,73.5,29.93,ESE,112,12.0,12.0,71,0.00,CLR,SKC,0.00,698.0,WeatherDisplay:10.37,2013-10-15 16:20:00,
2013-10-15 11:25:00,83.8,73.8,29.93,SE,125,12.7,12.7,72,0.00,CLR,SKC,0.00,721.0,WeatherDisplay:10.37,2013-10-15 16:25:00,
2013-10-15 11:30:00,83.9,73.9,29.93,SE,128,10.4,10.4,72,0.00,CLR,SKC,0.00,737.0,WeatherDisplay:10.37,2013-10-15 16:30:00,
2013-10-15 11:35:00,83.4,73.8,29.93,SE,140,11.5,11.5,73,0.00,CLR,SKC,0.00,770.0,WeatherDisplay:10.37,2013-10-15 16:35:00,
2013-10-15 11:40:00,83.8,73.8,29.93,SE,137,11.5,11.5,72,0.00,CLR,SKC,0.00,754.0,WeatherDisplay:10.37,2013-10-15 16:40:00,
2013-10-15 11:45:00,84.1,74.1,29.93,SE,132,9.2,9.2,72,0.00,CLR,SKC,0.00,728.0,WeatherDisplay:10.37,2013-10-15 16:45:00,
2013-10-15 11:50:00,84.2,73.8,29.93,SE,141,11.5,11.5,71,0.00,CLR,SKC,0.00,765.0,WeatherDisplay:10.37,2013-10-15 16:50:00,
2013-10-15 11:55:00,84.1,74.1,29.93,ESE,114,10.4,10.4,72,0.00,CLR,SKC,0.00,758.0,WeatherDisplay:10.37,2013-10-15 16:55:00,
2013-10-15 12:00:00,83.7,73.7,29.93,SE,138,11.5,11.5,72,0.00,CLR,SKC,0.00,770.0,WeatherDisplay:10.37,2013-10-15 17:00:00,
2013-10-15 12:05:00,83.5,73.9,29.93,SE,144,11.5,11.5,73,0.00,FEW,SKC,0.00,343.0,WeatherDisplay:10.37,2013-10-15 17:05:00,
2013-10-15 12:10:00,83.6,73.6,29.92,ESE,118,11.5,11.5,72,0.00,FEW,SKC,0.00,775.0,WeatherDisplay:10.37,2013-10-15 17:10:00,
2013-10-15 12:15:00,83.9,74.3,29.92,SE,142,7.0,7.0,73,0.00,FEW,SKC,0.00,823.0,WeatherDisplay:10.37,2013-10-15 17:15:00,
2013-10-15 12:20:00,83.9,74.3,29.92,SSE,165,10.4,10.4,73,0.00,FEW,SKC,0.00,904.0,WeatherDisplay:10.37,2013-10-15 17:20:00,
2013-10-15 12:25:00,84.0,74.4,29.92,SE,138,6.9,6.9,73,0.00,FEW,SKC,0.00,345.0,WeatherDisplay:10.37,2013-10-15 17:25:00,
2013-10-15 12:30:00,83.9,74.3,29.92,SSE,152,11.5,11.5,73,0.00,FEW,SKC,0.00,886.0,WeatherDisplay:10.37,2013-10-15 17:30:00,
2013-10-15 12:35:00,83.9,73.9,29.92,ESE,108,11.5,11.5,72,0.00,FEW,SKC,0.00,805.0,WeatherDisplay:10.37,2013-10-15 17:35:00,
2013-10-15 12:40:00,83.8,73.8,29.91,SE,127,10.4,10.4,72,0.00,FEW,SKC,0.00,216.0,WeatherDisplay:10.37,2013-10-15 17:40:00,
2013-10-15 12:45:00,84.1,73.7,29.91,SSE,150,8.1,8.1,71,0.00,FEW,SKC,0.00,805.0,WeatherDisplay:10.37,2013-10-15 17:45:00,
2013-10-15 12:50:00,84.6,73.7,29.91,SE,125,10.0,10.0,70,0.00,FEW,SKC,0.00,798.0,WeatherDisplay:10.37,2013-10-15 17:50:00,
2013-10-15 12:55:00,84.5,73.6,29.91,ESE,120,8.1,8.1,70,0.00,FEW,SKC,0.00,782.0,WeatherDisplay:10.37,2013-10-15 17:55:00,
2013-10-15 13:00:00,84.2,73.8,29.91,SE,144,12.7,12.7,71,0.00,FEW,SKC,0.00,821.0,WeatherDisplay:10.37,2013-10-15 18:00:00,
2013-10-15 13:05:00,84.0,73.6,29.91,SSE,155,8.1,8.1,71,0.00,FEW,SKC,0.00,316.0,WeatherDisplay:10.37,2013-10-15 18:05:00,
2013-10-15 13:10:00,84.3,73.4,29.90,SSE,151,10.4,10.4,70,0.00,FEW,SKC,0.00,812.0,WeatherDisplay:10.37,2013-10-15 18:10:00,
2013-10-15 13:15:00,84.6,73.7,29.90,SE,124,10.4,10.4,70,0.00,FEW,SKC,0.00,835.0,WeatherDisplay:10.37,2013-10-15 18:15:00,
2013-10-15 13:20:00,84.7,73.8,29.90,SE,134,10.4,10.4,70,0.00,FEW,SKC,0.00,346.0,WeatherDisplay:10.37,2013-10-15 18:20:00,
2013-10-15 13:25:00,84.6,73.3,29.90,ESE,115,10.4,10.4,69,0.00,FEW,SKC,0.00,853.0,WeatherDisplay:10.37,2013-10-15 18:25:00,
2013-10-15 13:30:00,84.5,73.6,29.90,East,96,5.8,5.8,70,0.00,FEW,SKC,0.00,807.0,WeatherDisplay:10.37,2013-10-15 18:30:00,
2013-10-15 13:35:00,84.7,73.8,29.90,SE,127,5.8,5.8,70,0.00,FEW,SKC,0.00,849.0,WeatherDisplay:10.37,2013-10-15 18:35:00,
2013-10-15 13:40:00,84.9,74.0,29.90,SE,146,10.4,10.4,70,0.00,FEW,SKC,0.00,844.0,WeatherDisplay:10.37,2013-10-15 18:40:00,
2013-10-15 13:45:00,85.0,74.1,29.90,SSE,148,13.8,13.8,70,0.00,FEW,SKC,0.00,849.0,WeatherDisplay:10.37,2013-10-15 18:45:00,
2013-10-15 13:50:00,84.7,73.4,29.90,SE,132,11.5,11.5,69,0.00,FEW,SKC,0.00,877.0,WeatherDisplay:10.37,2013-10-15 18:50:00,
2013-10-15 13:55:00,84.3,73.4,29.89,SE,135,11.5,11.5,70,0.00,FEW,SKC,0.00,814.0,WeatherDisplay:10.37,2013-10-15 18:55:00,
2013-10-15 14:00:00,84.4,73.5,29.89,East,88,11.5,11.5,70,0.00,FEW,SKC,0.00,791.0,WeatherDisplay:10.37,2013-10-15 19:00:00,
2013-10-15 14:05:00,84.4,73.5,29.89,SE,132,9.2,9.2,70,0.00,FEW,SKC,0.00,772.0,WeatherDisplay:10.37,2013-10-15 19:05:00,
2013-10-15 14:10:00,84.6,73.7,29.88,SE,130,9.2,9.2,70,0.00,FEW,SKC,0.00,772.0,WeatherDisplay:10.37,2013-10-15 19:10:00,
2013-10-15 14:15:00,84.2,73.3,29.88,East,96,11.5,11.5,70,0.00,FEW,SKC,0.00,761.0,WeatherDisplay:10.37,2013-10-15 19:15:00,
2013-10-15 14:20:00,83.8,73.8,29.88,SSE,165,7.0,7.0,72,0.00,FEW,SKC,0.00,749.0,WeatherDisplay:10.37,2013-10-15 19:20:00,
2013-10-15 14:25:00,84.2,73.3,29.87,SW,222,10.4,10.4,70,0.00,FEW,SKC,0.00,745.0,WeatherDisplay:10.37,2013-10-15 19:25:00,
2013-10-15 14:30:00,84.6,73.3,29.87,SE,137,7.0,7.0,69,0.00,FEW,SKC,0.00,733.0,WeatherDisplay:10.37,2013-10-15 19:30:00,
2013-10-15 14:35:00,84.9,73.6,29.87,ESE,123,6.9,6.9,69,0.00,FEW,SKC,0.00,726.0,WeatherDisplay:10.37,2013-10-15 19:35:00,
2013-10-15 14:40:00,84.8,73.1,29.86,ESE,117,11.5,11.5,68,0.00,FEW,SKC,0.00,714.0,WeatherDisplay:10.37,2013-10-15 19:40:00,
2013-10-15 14:45:00,84.2,73.3,29.86,SE,126,11.5,11.5,70,0.00,FEW,SKC,0.00,708.0,WeatherDisplay:10.37,2013-10-15 19:45:00,
2013-10-15 14:50:00,84.4,73.1,29.86,SSE,161,9.2,9.2,69,0.00,FEW,SKC,0.00,696.0,WeatherDisplay:10.37,2013-10-15 19:50:00,
2013-10-15 14:55:00,84.7,73.0,29.85,SSE,159,12.7,12.7,68,0.00,FEW,SKC,0.00,686.0,WeatherDisplay:10.37,2013-10-15 19:55:00,
2013-10-15 15:00:00,84.4,73.1,29.85,ESE,113,11.5,11.5,69,0.00,FEW,SKC,0.00,675.0,WeatherDisplay:10.37,2013-10-15 20:00:00,
2013-10-15 15:05:00,84.3,73.4,29.85,ESE,118,6.9,6.9,70,0.00,FEW,SKC,0.00,666.0,WeatherDisplay:10.37,2013-10-15 20:05:00,
2013-10-15 15:10:00,84.5,73.2,29.85,SE,142,11.5,11.5,69,0.00,FEW,SKC,0.00,650.0,WeatherDisplay:10.37,2013-10-15 20:10:00,
2013-10-15 15:15:00,84.1,73.3,29.85,SE,126,13.8,13.8,70,0.00,FEW,SKC,0.00,645.0,WeatherDisplay:10.37,2013-10-15 20:15:00,
2013-10-15 15:20:00,84.0,73.6,29.85,SE,124,9.2,9.2,71,0.00,FEW,SKC,0.00,628.0,WeatherDisplay:10.37,2013-10-15 20:20:00,
2013-10-15 15:25:00,83.9,73.9,29.85,East,93,9.2,9.2,72,0.00,FEW,SKC,0.00,615.0,WeatherDisplay:10.37,2013-10-15 20:25:00,
2013-10-15 15:30:00,83.9,73.9,29.85,ESE,116,10.4,10.4,72,0.00,FEW,SKC,0.00,610.0,WeatherDisplay:10.37,2013-10-15 20:30:00,
2013-10-15 15:35:00,83.4,73.8,29.85,ESE,122,10.4,10.4,73,0.00,FEW,SKC,0.00,606.0,WeatherDisplay:10.37,2013-10-15 20:35:00,
2013-10-15 15:40:00,83.1,74.4,29.84,ESE,111,11.5,11.5,75,0.00,FEW,SKC,0.00,566.0,WeatherDisplay:10.37,2013-10-15 20:40:00,
2013-10-15 15:45:00,83.0,73.9,29.84,ESE,121,14.0,14.0,74,0.00,FEW,SKC,0.00,541.0,WeatherDisplay:10.37,2013-10-15 20:45:00,
2013-10-15 15:50:00,83.0,74.3,29.84,East,101,11.5,11.5,75,0.00,FEW,SKC,0.00,533.0,WeatherDisplay:10.37,2013-10-15 20:50:00,
2013-10-15 15:55:00,83.3,74.1,29.84,SE,138,10.4,10.4,74,0.00,FEW,SKC,0.00,536.0,WeatherDisplay:10.37,2013-10-15 20:55:00,
2013-10-15 16:00:00,83.0,73.4,29.84,ESE,115,15.0,15.0,73,0.00,FEW,SKC,0.00,534.0,WeatherDisplay:10.37,2013-10-15 21:00:00,
2013-10-15 16:05:00,82.7,73.2,29.84,East,96,16.0,16.0,73,0.00,FEW,SKC,0.00,519.0,WeatherDisplay:10.37,2013-10-15 21:05:00,
2013-10-15 16:10:00,82.7,72.7,29.84,ESE,115,12.7,12.7,72,0.00,FEW,SKC,0.00,492.0,WeatherDisplay:10.37,2013-10-15 21:10:00,
2013-10-15 16:15:00,82.8,72.8,29.84,SE,125,12.7,12.7,72,0.00,FEW,SKC,0.00,497.0,WeatherDisplay:10.37,2013-10-15 21:15:00,
2013-10-15 16:20:00,83.0,73.0,29.84,ESE,105,11.5,11.5,72,0.00,FEW,SKC,0.00,478.0,WeatherDisplay:10.37,2013-10-15 21:20:00,
2013-10-15 16:25:00,82.8,72.0,29.84,ESE,108,11.5,11.5,70,0.00,FEW,SKC,0.00,455.0,WeatherDisplay:10.37,2013-10-15 21:25:00,
2013-10-15 16:30:00,83.0,72.6,29.84,SE,128,11.5,11.5,71,0.00,FEW,SKC,0.00,424.0,WeatherDisplay:10.37,2013-10-15 21:30:00,
2013-10-15 16:35:00,83.0,72.6,29.84,ESE,117,12.7,12.7,71,0.00,FEW,SKC,0.00,415.0,WeatherDisplay:10.37,2013-10-15 21:35:00,
2013-10-15 16:40:00,82.7,72.7,29.83,ESE,107,12.7,12.7,72,0.00,FEW,SKC,0.00,376.0,WeatherDisplay:10.37,2013-10-15 21:40:00,
2013-10-15 16:45:00,82.3,73.2,29.83,ESE,122,11.5,11.5,74,0.00,FEW,SKC,0.00,369.0,WeatherDisplay:10.37,2013-10-15 21:45:00,
2013-10-15 16:50:00,82.5,73.4,29.83,East,92,11.5,11.5,74,0.00,FEW,SKC,0.00,336.0,WeatherDisplay:10.37,2013-10-15 21:50:00,
2013-10-15 16:55:00,82.3,73.2,29.83,ESE,112,15.0,15.0,74,0.00,FEW,SKC,0.00,336.0,WeatherDisplay:10.37,2013-10-15 21:55:00,
2013-10-15 17:00:00,82.1,73.0,29.83,ESE,123,12.7,12.7,74,0.00,FEW,SKC,0.00,320.0,WeatherDisplay:10.37,2013-10-15 22:00:00,
2013-10-15 17:05:00,82.2,73.5,29.83,ESE,115,11.5,11.5,75,0.00,FEW,SKC,0.00,297.0,WeatherDisplay:10.37,2013-10-15 22:05:00,
2013-10-15 17:10:00,82.1,73.0,29.83,ESE,114,11.5,11.5,74,0.00,FEW,SKC,0.00,283.0,WeatherDisplay:10.37,2013-10-15 22:10:00,
2013-10-15 17:15:00,82.0,73.3,29.83,SE,140,11.5,11.5,75,0.00,FEW,SKC,0.00,265.0,WeatherDisplay:10.37,2013-10-15 22:15:00,
2013-10-15 17:20:00,82.0,72.9,29.83,ESE,118,12.7,12.7,74,0.00,FEW,SKC,0.00,253.0,WeatherDisplay:10.37,2013-10-15 22:20:00,
2013-10-15 17:25:00,82.0,73.3,29.83,SE,133,11.5,11.5,75,0.00,FEW,SKC,0.00,207.0,WeatherDisplay:10.37,2013-10-15 22:25:00,
2013-10-15 17:30:00,81.8,73.1,29.83,ESE,117,13.8,13.8,75,0.00,FEW,SKC,0.00,200.0,WeatherDisplay:10.37,2013-10-15 22:30:00,
2013-10-15 17:35:00,81.8,73.1,29.83,ESE,114,11.5,11.5,75,0.00,FEW,SKC,0.00,192.0,WeatherDisplay:10.37,2013-10-15 22:35:00,
2013-10-15 17:40:00,81.8,73.5,29.82,SE,131,11.5,11.5,76,0.00,FEW,SKC,0.00,178.0,WeatherDisplay:10.37,2013-10-15 22:40:00,
2013-10-15 17:45:00,81.8,73.5,29.82,ESE,107,16.0,16.0,76,0.00,FEW,SKC,0.00,179.0,WeatherDisplay:10.37,2013-10-15 22:45:00,
2013-10-15 17:50:00,81.6,73.3,29.82,ESE,123,10.4,10.4,76,0.00,FEW,SKC,0.00,183.0,WeatherDisplay:10.37,2013-10-15 22:50:00,
2013-10-15 17:55:00,81.6,73.3,29.83,ESE,108,11.5,11.5,76,0.00,FEW,SKC,0.00,160.0,WeatherDisplay:10.37,2013-10-15 22:55:00,
2013-10-15 18:00:00,81.5,73.2,29.83,ESE,120,11.5,11.5,76,0.00,FEW,SKC,0.00,156.0,WeatherDisplay:10.37,2013-10-15 23:00:00,
2013-10-15 18:05:00,81.5,72.8,29.83,ESE,123,12.7,12.7,75,0.00,FEW,SKC,0.00,134.0,WeatherDisplay:10.37,2013-10-15 23:05:00,
2013-10-15 18:10:00,81.6,73.3,29.83,SE,125,11.5,11.5,76,0.00,FEW,SKC,0.00,118.0,WeatherDisplay:10.37,2013-10-15 23:10:00,
2013-10-15 18:15:00,81.5,73.2,29.83,SE,132,10.4,10.4,76,0.00,FEW,SKC,0.00,102.0,WeatherDisplay:10.37,2013-10-15 23:15:00,
2013-10-15 18:20:00,81.3,73.0,29.83,ESE,123,11.5,11.5,76,0.00,FEW,SKC,0.00,84.0,WeatherDisplay:10.37,2013-10-15 23:20:00,
2013-10-15 18:25:00,81.4,73.1,29.83,ESE,106,10.4,10.4,76,0.00,FEW,SKC,0.00,74.0,WeatherDisplay:10.37,2013-10-15 23:25:00,
2013-10-15 18:30:00,81.4,73.5,29.83,SE,131,13.8,13.8,77,0.00,FEW,SKC,0.00,56.0,WeatherDisplay:10.37,2013-10-15 23:30:00,
2013-10-15 18:35:00,81.2,73.3,29.83,SSE,155,11.5,11.5,77,0.00,FEW,SKC,0.00,44.0,WeatherDisplay:10.37,2013-10-15 23:35:00,
2013-10-15 18:40:00,81.0,72.7,29.84,East,92,12.7,12.7,76,0.00,FEW,SKC,0.00,33.0,WeatherDisplay:10.37,2013-10-15 23:40:00,
2013-10-15 18:45:00,80.9,72.6,29.84,ESE,110,10.4,10.4,76,0.00,FEW,SKC,0.00,26.0,WeatherDisplay:10.37,2013-10-15 23:45:00,
2013-10-15 18:50:00,80.9,73.0,29.84,SE,138,7.0,7.0,77,0.00,FEW,SKC,0.00,18.0,WeatherDisplay:10.37,2013-10-15 23:50:00,
2013-10-15 18:55:00,80.9,73.0,29.84,SSE,153,11.0,11.0,77,0.00,FEW,SKC,0.00,11.0,WeatherDisplay:10.37,2013-10-15 23:55:00,
2013-10-15 19:00:00,80.7,72.8,29.84,SE,132,11.5,11.5,77,0.00,FEW,SKC,0.00,7.0,WeatherDisplay:10.37,2013-10-16 00:00:00,
2013-10-15 19:05:00,80.6,72.7,29.84,SE,125,11.5,11.5,77,0.00,FEW,SKC,0.00,7.0,WeatherDisplay:10.37,2013-10-16 00:05:00,
2013-10-15 19:10:00,80.5,72.6,29.84,SE,134,11.5,11.5,77,0.00,FEW,SKC,0.00,0.0,WeatherDisplay:10.37,2013-10-16 00:10:00,
2013-10-15 19:15:00,80.6,73.1,29.84,ESE,116,10.4,10.4,78,0.00,FEW,SKC,0.00,0.0,WeatherDisplay:10.37,2013-10-16 00:15:00,
2013-10-15 19:20:00,80.4,72.5,29.84,ESE,103,13.0,13.0,77,0.00,FEW,SKC,0.00,0.0,WeatherDisplay:10.37,2013-10-16 00:20:00,
2013-10-15 19:25:00,80.4,72.5,29.84,SE,128,11.5,11.5,77,0.00,FEW,SKC,0.00,0.0,WeatherDisplay:10.37,2013-10-16 00:25:00,
2013-10-15 19:30:00,80.4,72.5,29.84,ESE,123,13.8,13.8,77,0.00,FEW,SKC,0.00,0.0,WeatherDisplay:10.37,2013-10-16 00:30:00,
2013-10-15 19:35:00,80.4,72.5,29.84,ESE,111,11.5,11.5,77,0.00,FEW,SKC,0.00,0.0,WeatherDisplay:10.37,2013-10-16 00:35:00,
2013-10-15 19:40:00,80.4,72.9,29.84,ESE,122,12.7,12.7,78,0.00,FEW,SKC,0.00,0.0,WeatherDisplay:10.37,2013-10-16 00:40:00,
2013-10-15 19:45:00,80.5,73.0,29.84,SE,144,11.5,11.5,78,0.00,FEW,SKC,0.00,0.0,WeatherDisplay:10.37,2013-10-16 00:45:00,
2013-10-15 19:50:00,80.4,72.9,29.84,SE,124,11.5,11.5,78,0.00,FEW,SKC,0.00,0.0,WeatherDisplay:10.37,2013-10-16 00:50:00,
2013-10-15 19:55:00,80.3,72.8,29.84,SE,126,11.5,11.5,78,0.00,FEW,SKC,0.00,0.0,WeatherDisplay:10.37,2013-10-16 00:55:00,
2013-10-15 20:00:00,80.2,72.7,29.84,South,170,13.8,13.8,78,0.00,FEW,SKC,0.00,0.0,WeatherDisplay:10.37,2013-10-16 01:00:00,
2013-10-15 20:05:00,80.2,72.7,29.84,ESE,109,11.5,11.5,78,0.00,FEW,SKC,0.00,0.0,WeatherDisplay:10.37,2013-10-16 01:05:00,
2013-10-15 20:10:00,80.2,72.7,29.85,SE,126,11.5,11.5,78,0.00,FEW,SKC,0.00,0.0,WeatherDisplay:10.37,2013-10-16 01:10:00,
2013-10-15 20:15:00,80.2,72.7,29.85,SE,128,11.5,11.5,78,0.00,FEW,SKC,0.00,0.0,WeatherDisplay:10.37,2013-10-16 01:15:00,
2013-10-15 20:20:00,80.3,73.2,29.85,SE,138,11.5,11.5,79,0.00,FEW,SKC,0.00,0.0,WeatherDisplay:10.37,2013-10-16 01:20:00,
2013-10-15 20:25:00,80.3,73.2,29.85,ESE,107,6.9,6.9,79,0.00,FEW,SKC,0.00,0.0,WeatherDisplay:10.37,2013-10-16 01:25:00,
2013-10-15 20:30:00,80.2,73.1,29.85,SE,128,9.2,9.2,79,0.00,FEW,SKC,0.00,0.0,WeatherDisplay:10.37,2013-10-16 01:30:00,
2013-10-15 20:35:00,80.2,73.1,29.85,SE,134,6.9,6.9,79,0.00,FEW,SKC,0.00,0.0,WeatherDisplay:10.37,2013-10-16 01:35:00,
2013-10-15 20:40:00,80.2,73.5,29.86,East,96,12.7,12.7,80,0.00,FEW,SKC,0.00,0.0,WeatherDisplay:10.37,2013-10-16 01:40:00,
2013-10-15 20:45:00,80.1,73.0,29.86,ESE,109,12.7,12.7,79,0.00,FEW,SKC,0.00,0.0,WeatherDisplay:10.37,2013-10-16 01:45:00,
2013-10-15 20:50:00,80.1,73.4,29.86,ESE,113,9.2,9.2,80,0.00,FEW,SKC,0.00,0.0,WeatherDisplay:10.37,2013-10-16 01:50:00,
2013-10-15 20:55:00,80.0,73.3,29.86,ESE,119,11.5,11.5,80,0.00,FEW,SKC,0.00,0.0,WeatherDisplay:10.37,2013-10-16 01:55:00,
2013-10-15 21:01:00,80.0,72.9,29.86,ESE,123,6.0,12.0,79,0.00,CLR,SKC,0.00,0.0,WeatherDisplay:10.37,2013-10-16 02:01:00,
2013-10-15 21:06:00,80.0,72.9,29.86,ESE,115,10.4,10.4,79,0.00,CLR,SKC,0.00,0.0,WeatherDisplay:10.37,2013-10-16 02:06:00,
2013-10-15 21:11:00,80.0,73.3,29.87,ESE,117,8.1,8.1,80,0.00,CLR,SKC,0.00,0.0,WeatherDisplay:10.37,2013-10-16 02:11:00,
2013-10-15 21:16:00,80.0,72.9,29.87,ESE,121,9.2,9.2,79,0.00,CLR,SKC,0.00,0.0,WeatherDisplay:10.37,2013-10-16 02:16:00,
2013-10-15 21:21:00,80.1,73.0,29.87,SE,129,11.5,11.5,79,0.00,CLR,SKC,0.00,0.0,WeatherDisplay:10.37,2013-10-16 02:21:00,
2013-10-15 21:26:00,80.0,72.9,29.87,SSE,168,11.5,11.5,79,0.00,CLR,SKC,0.00,0.0,WeatherDisplay:10.37,2013-10-16 02:26:00,
2013-10-15 21:31:00,80.1,73.4,29.87,SE,130,10.4,10.4,80,0.00,CLR,SKC,0.00,0.0,WeatherDisplay:10.37,2013-10-16 02:31:00,
2013-10-15 21:36:00,80.1,73.4,29.87,SE,138,11.5,11.5,80,0.00,CLR,SKC,0.00,0.0,WeatherDisplay:10.37,2013-10-16 02:36:00,
2013-10-15 21:41:00,80.0,72.9,29.87,SE,130,11.0,11.0,79,0.00,CLR,SKC,0.00,0.0,WeatherDisplay:10.37,2013-10-16 02:41:00,
2013-10-15 21:46:00,80.0,72.9,29.87,ESE,114,11.5,11.5,79,0.00,CLR,SKC,0.00,0.0,WeatherDisplay:10.37,2013-10-16 02:46:00,
2013-10-15 21:51:00,80.0,72.9,29.87,SSE,159,5.8,6.0,79,0.00,CLR,SKC,0.00,0.0,WeatherDisplay:10.37,2013-10-16 02:51:00,
2013-10-15 21:56:00,79.9,72.8,29.87,SE,138,6.9,6.9,79,0.00,CLR,SKC,0.00,0.0,WeatherDisplay:10.37,2013-10-16 02:56:00,
2013-10-15 22:01:00,79.8,72.7,29.87,SE,135,10.4,10.4,79,0.00,CLR,SKC,0.00,0.0,WeatherDisplay:10.37,2013-10-16 03:01:00,
2013-10-15 22:06:00,79.9,72.8,29.87,ESE,121,11.5,11.5,79,0.00,CLR,SKC,0.00,0.0,WeatherDisplay:10.37,2013-10-16 03:06:00,
2013-10-15 22:11:00,79.9,72.8,29.88,SE,142,11.5,11.5,79,0.00,CLR,SKC,0.00,0.0,WeatherDisplay:10.37,2013-10-16 03:11:00,
2013-10-15 22:16:00,79.9,72.8,29.88,ESE,105,15.0,15.0,79,0.00,CLR,SKC,0.00,0.0,WeatherDisplay:10.37,2013-10-16 03:16:00,
2013-10-15 22:21:00,80.0,72.9,29.88,ESE,117,6.9,6.9,79,0.00,CLR,SKC,0.00,0.0,WeatherDisplay:10.37,2013-10-16 03:21:00,
2013-10-15 22:26:00,79.9,72.8,29.88,ENE,78,10.4,10.4,79,0.00,CLR,SKC,0.00,0.0,WeatherDisplay:10.37,2013-10-16 03:26:00,
2013-10-15 22:31:00,79.9,72.8,29.88,ESE,113,10.4,10.4,79,0.00,CLR,SKC,0.00,0.0,WeatherDisplay:10.37,2013-10-16 03:31:00,
2013-10-15 22:36:00,79.9,72.8,29.88,SE,134,10.4,10.4,79,0.00,CLR,SKC,0.00,0.0,WeatherDisplay:10.37,2013-10-16 03:36:00,
2013-10-15 22:41:00,79.9,72.8,29.88,SSE,156,8.1,8.1,79,0.00,CLR,SKC,0.00,0.0,WeatherDisplay:10.37,2013-10-16 03:41:00,
2013-10-15 22:46:00,79.9,72.8,29.88,ESE,114,10.4,10.4,79,0.00,CLR,SKC,0.00,0.0,WeatherDisplay:10.37,2013-10-16 03:46:00,
2013-10-15 22:51:00,80.0,72.9,29.88,ESE,123,12.7,12.7,79,0.00,CLR,SKC,0.00,0.0,WeatherDisplay:10.37,2013-10-16 03:51:00,
2013-10-15 22:56:00,80.0,72.9,29.89,South,169,11.5,11.5,79,0.00,CLR,SKC,0.00,0.0,WeatherDisplay:10.37,2013-10-16 03:56:00,
2013-10-15 23:01:00,79.9,72.8,29.89,SE,136,9.2,9.2,79,0.00,CLR,SKC,0.00,0.0,WeatherDisplay:10.37,2013-10-16 04:01:00,
2013-10-15 23:02:00,79.9,72.8,29.89,SSE,159,12.7,12.7,79,0.00,CLR,SKC,0.00,0.0,WeatherDisplay:10.37,2013-10-16 04:02:00,
2013-10-15 23:07:00,79.9,72.8,29.89,ESE,123,11.5,11.5,79,0.00,CLR,SKC,0.00,0.0,WeatherDisplay:10.37,2013-10-16 04:07:00,
2013-10-15 23:12:00,80.0,73.3,29.89,SSE,153,6.9,6.9,80,0.00,CLR,SKC,0.00,0.0,WeatherDisplay:10.37,2013-10-16 04:12:00,
2013-10-15 23:17:00,79.9,72.8,29.89,ESE,123,9.2,9.2,79,0.00,CLR,SKC,0.00,0.0,WeatherDisplay:10.37,2013-10-16 04:17:00,
2013-10-15 23:22:00,79.8,72.7,29.89,SE,130,4.6,4.6,79,0.00,CLR,SKC,0.00,0.0,WeatherDisplay:10.37,2013-10-16 04:22:00,
2013-10-15 23:27:00,79.9,72.8,29.89,SE,130,6.9,6.9,79,0.00,CLR,SKC,0.00,0.0,WeatherDisplay:10.37,2013-10-16 04:27:00,
2013-10-15 23:32:00,79.9,72.8,29.89,SSE,163,11.0,11.0,79,0.00,CLR,SKC,0.00,0.0,WeatherDisplay:10.37,2013-10-16 04:32:00,
2013-10-15 23:37:00,79.9,72.8,29.89,SE,136,8.0,8.0,79,0.00,CLR,SKC,0.00,0.0,WeatherDisplay:10.37,2013-10-16 04:37:00,
2013-10-15 23:42:00,79.9,72.8,29.88,SE,124,9.2,9.2,79,0.00,CLR,SKC,0.00,0.0,WeatherDisplay:10.37,2013-10-16 04:42:00,
2013-10-15 23:47:00,79.9,72.8,29.88,SSE,152,10.4,10.4,79,0.00,CLR,SKC,0.00,0.0,WeatherDisplay:10.37,2013-10-16 04:47:00,
2013-10-15 23:52:00,79.9,72.8,29.88,SE,145,6.9,6.9,79,0.00,CLR,SKC,0.00,0.0,WeatherDisplay:10.37,2013-10-16 04:52:00,
2013-10-15 23:57:00,79.9,72.8,29.88,ESE,114,9.2,9.2,79,0.00,CLR,SKC,0.00,0.0,WeatherDisplay:10.37,2013-10-16 04:57:00,